EZY39 EGKK-EDDH
Flight info
| Callsign | EZY39 |
|---|---|
| Flight time | 1h 27m |
| Altitude | 39000 |
| Route | FRANE M604 PAAVO Q295 SOMVA DCT MAVAS DCT PARYD DCT GASTU DCT OSTOR T904 RIBSO RIBSO7A |
| Aircraft | A20N/M-SDE2E3FGHIRWXY/LB1 |
Departure
| Time | 2026-05-06 12:54 |
|---|---|
| Airport | London Gatwick Airport (EGKK) |
Arrival
| Time | 2026-05-06 14:21 |
|---|---|
| Airport | Hamburg Helmut Schmidt Airport (EDDH) |
| Time | Latitude | Longitude | Altitude | Speed | Heading |
|---|---|---|---|---|---|
| 2026-05-06 12:04 | 51.15201 | -0.18870 | 205 ft | 0 kts | 257° |
| 2026-05-06 12:37 | 51.15201 | -0.18868 | 211 ft | 2 kts | 257° |
| 2026-05-06 12:37 | 51.15207 | -0.18829 | 209 ft | 4 kts | 254° |
| 2026-05-06 12:37 | 51.15216 | -0.18788 | 215 ft | 4 kts | 248° |
| 2026-05-06 12:37 | 51.15227 | -0.18750 | 212 ft | 4 kts | 232° |
| 2026-05-06 12:38 | 51.15245 | -0.18727 | 216 ft | 3 kts | 173° |
| 2026-05-06 12:38 | 51.15253 | -0.18729 | 215 ft | 0 kts | 167° |
| 2026-05-06 12:41 | 51.15245 | -0.18726 | 217 ft | 4 kts | 167° |
| 2026-05-06 12:41 | 51.15226 | -0.18719 | 217 ft | 8 kts | 168° |
| 2026-05-06 12:42 | 51.15148 | -0.18715 | 209 ft | 11 kts | 214° |
| 2026-05-06 12:42 | 51.15103 | -0.18916 | 207 ft | 24 kts | 258° |
| 2026-05-06 12:42 | 51.15066 | -0.19200 | 208 ft | 28 kts | 259° |
| 2026-05-06 12:42 | 51.15033 | -0.19423 | 208 ft | 17 kts | 256° |
| 2026-05-06 12:43 | 51.15018 | -0.19540 | 208 ft | 5 kts | 260° |
| 2026-05-06 12:43 | 51.15018 | -0.19542 | 208 ft | 0 kts | 259° |
| 2026-05-06 12:43 | 51.15018 | -0.19543 | 208 ft | 1 kts | 259° |
| 2026-05-06 12:43 | 51.15014 | -0.19581 | 214 ft | 6 kts | 260° |
| 2026-05-06 12:44 | 51.15003 | -0.19665 | 211 ft | 10 kts | 258° |
| 2026-05-06 12:44 | 51.14986 | -0.19790 | 208 ft | 13 kts | 256° |
| 2026-05-06 12:44 | 51.14964 | -0.19945 | 206 ft | 13 kts | 258° |
| 2026-05-06 12:44 | 51.14945 | -0.20067 | 208 ft | 11 kts | 254° |
| 2026-05-06 12:45 | 51.14933 | -0.20109 | 210 ft | 0 kts | 229° |
| 2026-05-06 12:45 | 51.14919 | -0.20124 | 210 ft | 1 kts | 206° |
| 2026-05-06 12:45 | 51.14902 | -0.20136 | 211 ft | 0 kts | 199° |
| 2026-05-06 12:47 | 51.14888 | -0.20143 | 213 ft | 7 kts | 197° |
| 2026-05-06 12:48 | 51.14843 | -0.20195 | 206 ft | 0 kts | 227° |
| 2026-05-06 12:48 | 51.14840 | -0.20201 | 203 ft | 0 kts | 229° |
| 2026-05-06 12:48 | 51.14834 | -0.20226 | 213 ft | 0 kts | 253° |
| 2026-05-06 12:48 | 51.14833 | -0.20232 | 213 ft | 6 kts | 253° |
| 2026-05-06 12:49 | 51.14800 | -0.20456 | 213 ft | 31 kts | 257° |
| 2026-05-06 12:49 | 51.14763 | -0.20711 | 204 ft | 31 kts | 256° |
| 2026-05-06 12:49 | 51.14733 | -0.20938 | 207 ft | 0 kts | 258° |
| 2026-05-06 12:49 | 51.14733 | -0.20940 | 208 ft | 0 kts | 258° |
| 2026-05-06 12:50 | 51.14712 | -0.21106 | 215 ft | 36 kts | 259° |
| 2026-05-06 12:51 | 51.14689 | -0.21279 | 207 ft | 0 kts | 248° |
| 2026-05-06 12:51 | 51.14672 | -0.21316 | 206 ft | 7 kts | 224° |
| 2026-05-06 12:51 | 51.14641 | -0.21333 | 207 ft | 0 kts | 182° |
| 2026-05-06 12:51 | 51.14626 | -0.21330 | 205 ft | 3 kts | 173° |
| 2026-05-06 12:52 | 51.14564 | -0.21297 | 207 ft | 16 kts | 147° |
| 2026-05-06 12:52 | 51.14526 | -0.21137 | 216 ft | 16 kts | 80° |
| 2026-05-06 12:52 | 51.14528 | -0.21124 | 212 ft | 0 kts | 71° |
| 2026-05-06 12:53 | 51.14530 | -0.21116 | 210 ft | 8 kts | 73° |
| 2026-05-06 12:53 | 51.14605 | -0.20585 | 208 ft | 91 kts | 77° |
| 2026-05-06 12:54 | 51.14792 | -0.19220 | 245 ft | 155 kts | 76° |
| 2026-05-06 12:54 | 51.14991 | -0.17559 | 1064 ft | 159 kts | 76° |
| 2026-05-06 12:54 | 51.15148 | -0.15740 | 1944 ft | 173 kts | 79° |
| 2026-05-06 12:54 | 51.15244 | -0.13754 | 2940 ft | 182 kts | 79° |
| 2026-05-06 12:55 | 51.15511 | -0.11729 | 3644 ft | 199 kts | 70° |
| 2026-05-06 12:55 | 51.15935 | -0.09559 | 4419 ft | 207 kts | 69° |
| 2026-05-06 12:55 | 51.16340 | -0.07370 | 5429 ft | 208 kts | 71° |
| 2026-05-06 12:55 | 51.16719 | -0.05068 | 6152 ft | 225 kts | 72° |
| 2026-05-06 12:56 | 51.16928 | -0.02464 | 6674 ft | 250 kts | 88° |
| 2026-05-06 12:56 | 51.16867 | 0.00430 | 7225 ft | 272 kts | 89° |
| 2026-05-06 12:56 | 51.16795 | 0.03496 | 8027 ft | 280 kts | 89° |
| 2026-05-06 12:56 | 51.16734 | 0.06345 | 8887 ft | 285 kts | 89° |
| 2026-05-06 12:57 | 51.16673 | 0.09413 | 9812 ft | 291 kts | 89° |
| 2026-05-06 12:57 | 51.16611 | 0.12618 | 10664 ft | 296 kts | 89° |
| 2026-05-06 12:57 | 51.16548 | 0.15897 | 11557 ft | 300 kts | 90° |
| 2026-05-06 12:57 | 51.16525 | 0.19247 | 12393 ft | 305 kts | 88° |
| 2026-05-06 12:58 | 51.16542 | 0.22671 | 12864 ft | 312 kts | 88° |
| 2026-05-06 12:58 | 51.16564 | 0.26134 | 13014 ft | 313 kts | 88° |
| 2026-05-06 12:58 | 51.16580 | 0.29592 | 13047 ft | 311 kts | 88° |
| 2026-05-06 12:58 | 51.16588 | 0.33033 | 13048 ft | 310 kts | 88° |
| 2026-05-06 12:59 | 51.16594 | 0.36469 | 13047 ft | 311 kts | 88° |
| 2026-05-06 12:59 | 51.16598 | 0.38922 | 13048 ft | 311 kts | 88° |
| 2026-05-06 12:59 | 51.16602 | 0.42350 | 13049 ft | 309 kts | 88° |
| 2026-05-06 12:59 | 51.16602 | 0.45715 | 13048 ft | 309 kts | 88° |
| 2026-05-06 13:00 | 51.16622 | 0.49167 | 13100 ft | 313 kts | 83° |
| 2026-05-06 13:00 | 51.17254 | 0.52447 | 13586 ft | 311 kts | 56° |
| 2026-05-06 13:00 | 51.18688 | 0.54970 | 14413 ft | 308 kts | 32° |
| 2026-05-06 13:00 | 51.20623 | 0.56365 | 15123 ft | 308 kts | 12° |
| 2026-05-06 13:01 | 51.22722 | 0.57131 | 15833 ft | 311 kts | 9° |
| 2026-05-06 13:01 | 51.24865 | 0.57810 | 16576 ft | 316 kts | 9° |
| 2026-05-06 13:01 | 51.27029 | 0.58520 | 17278 ft | 321 kts | 9° |
| 2026-05-06 13:01 | 51.29225 | 0.59287 | 17999 ft | 325 kts | 10° |
| 2026-05-06 13:02 | 51.31422 | 0.60085 | 18642 ft | 330 kts | 11° |
| 2026-05-06 13:02 | 51.33667 | 0.60918 | 19270 ft | 333 kts | 11° |
| 2026-05-06 13:02 | 51.35939 | 0.61768 | 19881 ft | 337 kts | 11° |
| 2026-05-06 13:02 | 51.38228 | 0.62627 | 20459 ft | 341 kts | 11° |
| 2026-05-06 13:03 | 51.40570 | 0.63507 | 20864 ft | 353 kts | 11° |
| 2026-05-06 13:03 | 51.43023 | 0.64435 | 21032 ft | 370 kts | 11° |
| 2026-05-06 13:03 | 51.45580 | 0.65406 | 21201 ft | 386 kts | 11° |
| 2026-05-06 13:03 | 51.48239 | 0.66420 | 21453 ft | 399 kts | 11° |
| 2026-05-06 13:04 | 51.50959 | 0.67459 | 22020 ft | 403 kts | 11° |
| 2026-05-06 13:04 | 51.53698 | 0.68506 | 22618 ft | 407 kts | 11° |
| 2026-05-06 13:04 | 51.56384 | 0.69532 | 23178 ft | 410 kts | 11° |
| 2026-05-06 13:04 | 51.59175 | 0.70599 | 23714 ft | 414 kts | 11° |
| 2026-05-06 13:05 | 51.61989 | 0.71673 | 24208 ft | 417 kts | 11° |
| 2026-05-06 13:05 | 51.64818 | 0.72752 | 24714 ft | 420 kts | 12° |
| 2026-05-06 13:05 | 51.67671 | 0.73842 | 25193 ft | 423 kts | 12° |
| 2026-05-06 13:05 | 51.70545 | 0.74943 | 25664 ft | 425 kts | 12° |
| 2026-05-06 13:06 | 51.73426 | 0.76047 | 26122 ft | 428 kts | 12° |
| 2026-05-06 13:06 | 51.76355 | 0.76999 | 26579 ft | 430 kts | 8° |
| 2026-05-06 13:06 | 51.79259 | 0.78208 | 27002 ft | 435 kts | 19° |
| 2026-05-06 13:06 | 51.82001 | 0.80336 | 27416 ft | 440 kts | 30° |
| 2026-05-06 13:07 | 51.84485 | 0.83146 | 27820 ft | 443 kts | 39° |
| 2026-05-06 13:07 | 51.86631 | 0.86729 | 28203 ft | 447 kts | 52° |
| 2026-05-06 13:07 | 51.88242 | 0.91052 | 28583 ft | 450 kts | 65° |
| 2026-05-06 13:07 | 51.89419 | 0.95763 | 28970 ft | 452 kts | 70° |
| 2026-05-06 13:08 | 51.90488 | 1.00552 | 29331 ft | 455 kts | 70° |
| 2026-05-06 13:08 | 51.91592 | 1.05377 | 29715 ft | 457 kts | 69° |
| 2026-05-06 13:08 | 51.92746 | 1.10177 | 30064 ft | 460 kts | 68° |
| 2026-05-06 13:08 | 51.93944 | 1.15000 | 30385 ft | 462 kts | 68° |
| 2026-05-06 13:09 | 51.95164 | 1.19830 | 30720 ft | 464 kts | 68° |
| 2026-05-06 13:09 | 51.96390 | 1.24660 | 31040 ft | 466 kts | 68° |
| 2026-05-06 13:09 | 51.97608 | 1.29462 | 31424 ft | 466 kts | 68° |
| 2026-05-06 13:09 | 51.98836 | 1.34313 | 31857 ft | 464 kts | 68° |
| 2026-05-06 13:10 | 52.00056 | 1.39149 | 32267 ft | 463 kts | 68° |
| 2026-05-06 13:10 | 52.01276 | 1.43994 | 32698 ft | 462 kts | 68° |
| 2026-05-06 13:10 | 52.02489 | 1.48825 | 33093 ft | 462 kts | 68° |
| 2026-05-06 13:10 | 52.03694 | 1.53635 | 33507 ft | 460 kts | 68° |
| 2026-05-06 13:11 | 52.04898 | 1.58452 | 33892 ft | 459 kts | 68° |
| 2026-05-06 13:11 | 52.06098 | 1.63264 | 34206 ft | 459 kts | 68° |
| 2026-05-06 13:11 | 52.07296 | 1.68076 | 34463 ft | 459 kts | 68° |
| 2026-05-06 13:11 | 52.08492 | 1.72890 | 34706 ft | 460 kts | 68° |
| 2026-05-06 13:12 | 52.09674 | 1.77661 | 34960 ft | 461 kts | 68° |
| 2026-05-06 13:12 | 52.10870 | 1.82496 | 35190 ft | 461 kts | 68° |
| 2026-05-06 13:12 | 52.12067 | 1.87348 | 35419 ft | 462 kts | 68° |
| 2026-05-06 13:12 | 52.13264 | 1.92209 | 35662 ft | 462 kts | 68° |
| 2026-05-06 13:13 | 52.14457 | 1.97068 | 35888 ft | 463 kts | 68° |
| 2026-05-06 13:13 | 52.15648 | 2.01927 | 36104 ft | 463 kts | 68° |
| 2026-05-06 13:13 | 52.16843 | 2.06814 | 36338 ft | 464 kts | 69° |
| 2026-05-06 13:13 | 52.18028 | 2.11668 | 36533 ft | 464 kts | 69° |
| 2026-05-06 13:14 | 52.19210 | 2.16522 | 36744 ft | 464 kts | 69° |
| 2026-05-06 13:14 | 52.20400 | 2.21422 | 36927 ft | 465 kts | 69° |
| 2026-05-06 13:14 | 52.21588 | 2.26322 | 37156 ft | 465 kts | 69° |
| 2026-05-06 13:14 | 52.22772 | 2.31218 | 37331 ft | 465 kts | 69° |
| 2026-05-06 13:15 | 52.23961 | 2.36143 | 37510 ft | 466 kts | 69° |
| 2026-05-06 13:15 | 52.25146 | 2.41063 | 37682 ft | 466 kts | 69° |
| 2026-05-06 13:15 | 52.26329 | 2.45987 | 37864 ft | 467 kts | 69° |
| 2026-05-06 13:15 | 52.27512 | 2.50924 | 38037 ft | 467 kts | 69° |
| 2026-05-06 13:16 | 52.28696 | 2.55873 | 38195 ft | 468 kts | 69° |
| 2026-05-06 13:16 | 52.29866 | 2.60775 | 38360 ft | 468 kts | 69° |
| 2026-05-06 13:16 | 52.30970 | 2.65772 | 38509 ft | 468 kts | 74° |
| 2026-05-06 13:16 | 52.31854 | 2.70872 | 38640 ft | 468 kts | 75° |
| 2026-05-06 13:17 | 52.32761 | 2.76023 | 38760 ft | 469 kts | 75° |
| 2026-05-06 13:17 | 52.33670 | 2.81143 | 38876 ft | 469 kts | 75° |
| 2026-05-06 13:17 | 52.34578 | 2.86271 | 38939 ft | 469 kts | 75° |
| 2026-05-06 13:18 | 52.36363 | 2.96453 | 38942 ft | 469 kts | 75° |
| 2026-05-06 13:18 | 52.38142 | 3.06694 | 38947 ft | 469 kts | 75° |
| 2026-05-06 13:19 | 52.39918 | 3.16977 | 38940 ft | 469 kts | 75° |
| 2026-05-06 13:19 | 52.41683 | 3.27269 | 38943 ft | 469 kts | 75° |
| 2026-05-06 13:20 | 52.43449 | 3.37563 | 38938 ft | 469 kts | 75° |
| 2026-05-06 13:20 | 52.45212 | 3.47867 | 38937 ft | 470 kts | 75° |
| 2026-05-06 13:21 | 52.46963 | 3.58187 | 38932 ft | 470 kts | 75° |
| 2026-05-06 13:21 | 52.48703 | 3.68517 | 38930 ft | 470 kts | 76° |
| 2026-05-06 13:22 | 52.50426 | 3.78805 | 38927 ft | 470 kts | 76° |
| 2026-05-06 13:22 | 52.52149 | 3.89157 | 38923 ft | 470 kts | 76° |
| 2026-05-06 13:23 | 52.53863 | 3.99519 | 38923 ft | 470 kts | 76° |
| 2026-05-06 13:23 | 52.55569 | 4.09890 | 38917 ft | 471 kts | 76° |
| 2026-05-06 13:24 | 52.57267 | 4.20282 | 38918 ft | 471 kts | 76° |
| 2026-05-06 13:24 | 52.58955 | 4.30673 | 38913 ft | 471 kts | 76° |
| 2026-05-06 13:25 | 52.60637 | 4.41090 | 38910 ft | 471 kts | 76° |
| 2026-05-06 13:25 | 52.62296 | 4.51431 | 38913 ft | 471 kts | 76° |
| 2026-05-06 13:26 | 52.63955 | 4.61836 | 38914 ft | 470 kts | 76° |
| 2026-05-06 13:26 | 52.65607 | 4.72261 | 38919 ft | 471 kts | 77° |
| 2026-05-06 13:27 | 52.67251 | 4.82702 | 38923 ft | 471 kts | 77° |
| 2026-05-06 13:27 | 52.68877 | 4.93090 | 38919 ft | 471 kts | 77° |
| 2026-05-06 13:28 | 52.70500 | 5.03535 | 38914 ft | 470 kts | 77° |
| 2026-05-06 13:28 | 52.72116 | 5.13998 | 38909 ft | 470 kts | 77° |
| 2026-05-06 13:29 | 52.73448 | 5.22668 | 38901 ft | 470 kts | 77° |
| 2026-05-06 13:29 | 52.75046 | 5.33133 | 38892 ft | 470 kts | 77° |
| 2026-05-06 13:30 | 52.76891 | 5.45310 | 38886 ft | 470 kts | 77° |
| 2026-05-06 13:30 | 52.78210 | 5.54066 | 38885 ft | 470 kts | 77° |
| 2026-05-06 13:31 | 52.79782 | 5.64571 | 38881 ft | 470 kts | 77° |
| 2026-05-06 13:31 | 52.81332 | 5.74993 | 38876 ft | 470 kts | 77° |
| 2026-05-06 13:32 | 52.82882 | 5.85485 | 38878 ft | 471 kts | 78° |
| 2026-05-06 13:32 | 52.84426 | 5.96011 | 38871 ft | 471 kts | 78° |
| 2026-05-06 13:33 | 52.85961 | 6.06544 | 38876 ft | 471 kts | 78° |
| 2026-05-06 13:33 | 52.87493 | 6.17097 | 38878 ft | 472 kts | 78° |
| 2026-05-06 13:34 | 52.89172 | 6.27495 | 38813 ft | 469 kts | 71° |
| 2026-05-06 13:34 | 52.90118 | 6.32557 | 39439 ft | 448 kts | 75° |
| 2026-05-06 13:34 | 52.91221 | 6.37318 | 39966 ft | 440 kts | 63° |
| 2026-05-06 13:34 | 52.92858 | 6.41729 | 39753 ft | 450 kts | 56° |
| 2026-05-06 13:35 | 52.94649 | 6.46072 | 39417 ft | 462 kts | 57° |
| 2026-05-06 13:35 | 52.96364 | 6.50565 | 39092 ft | 474 kts | 60° |
| 2026-05-06 13:35 | 52.98020 | 6.55329 | 38918 ft | 477 kts | 62° |
| 2026-05-06 13:36 | 53.01140 | 6.65000 | 38906 ft | 475 kts | 63° |
| 2026-05-06 13:36 | 53.04195 | 6.74742 | 38906 ft | 476 kts | 63° |
| 2026-05-06 13:37 | 53.07246 | 6.84505 | 38902 ft | 476 kts | 63° |
| 2026-05-06 13:37 | 53.10275 | 6.94214 | 38897 ft | 476 kts | 63° |
| 2026-05-06 13:38 | 53.13299 | 7.03954 | 38526 ft | 471 kts | 64° |
| 2026-05-06 13:38 | 53.14794 | 7.08783 | 38056 ft | 467 kts | 64° |
| 2026-05-06 13:38 | 53.16266 | 7.13546 | 37620 ft | 461 kts | 64° |
| 2026-05-06 13:38 | 53.17725 | 7.18275 | 37153 ft | 455 kts | 64° |
| 2026-05-06 13:39 | 53.19160 | 7.22935 | 36718 ft | 450 kts | 64° |
| 2026-05-06 13:39 | 53.20578 | 7.27551 | 36284 ft | 444 kts | 64° |
| 2026-05-06 13:39 | 53.21975 | 7.32104 | 35860 ft | 439 kts | 64° |
| 2026-05-06 13:39 | 53.23361 | 7.36633 | 35425 ft | 434 kts | 64° |
| 2026-05-06 13:40 | 53.24721 | 7.41085 | 35011 ft | 429 kts | 64° |
| 2026-05-06 13:40 | 53.26067 | 7.45498 | 34625 ft | 424 kts | 64° |
| 2026-05-06 13:40 | 53.27400 | 7.49877 | 34280 ft | 420 kts | 64° |
| 2026-05-06 13:40 | 53.28699 | 7.54152 | 33926 ft | 416 kts | 65° |
| 2026-05-06 13:41 | 53.29999 | 7.58441 | 33480 ft | 413 kts | 65° |
| 2026-05-06 13:41 | 53.31291 | 7.62708 | 33026 ft | 409 kts | 65° |
| 2026-05-06 13:41 | 53.32515 | 7.66760 | 32563 ft | 405 kts | 65° |
| 2026-05-06 13:41 | 53.33783 | 7.70963 | 32087 ft | 402 kts | 65° |
| 2026-05-06 13:42 | 53.35016 | 7.75061 | 31629 ft | 398 kts | 65° |
| 2026-05-06 13:42 | 53.36253 | 7.79175 | 31179 ft | 395 kts | 65° |
| 2026-05-06 13:42 | 53.37482 | 7.83272 | 30730 ft | 392 kts | 65° |
| 2026-05-06 13:42 | 53.38697 | 7.87328 | 30292 ft | 388 kts | 65° |
| 2026-05-06 13:43 | 53.39889 | 7.91314 | 29866 ft | 385 kts | 65° |
| 2026-05-06 13:43 | 53.41080 | 7.95303 | 29353 ft | 382 kts | 65° |
| 2026-05-06 13:43 | 53.42260 | 7.99263 | 28839 ft | 379 kts | 65° |
| 2026-05-06 13:43 | 53.43420 | 8.03161 | 28332 ft | 377 kts | 65° |
| 2026-05-06 13:44 | 53.44583 | 8.07073 | 27845 ft | 374 kts | 65° |
| 2026-05-06 13:44 | 53.45740 | 8.10970 | 27353 ft | 372 kts | 65° |
| 2026-05-06 13:44 | 53.46893 | 8.14862 | 26889 ft | 369 kts | 65° |
| 2026-05-06 13:44 | 53.48026 | 8.18694 | 26434 ft | 367 kts | 65° |
| 2026-05-06 13:45 | 53.49157 | 8.22527 | 25968 ft | 365 kts | 65° |
| 2026-05-06 13:45 | 53.51388 | 8.30104 | 25083 ft | 360 kts | 65° |
| 2026-05-06 13:45 | 53.52496 | 8.33878 | 24656 ft | 358 kts | 65° |
| 2026-05-06 13:46 | 53.53592 | 8.37615 | 24261 ft | 356 kts | 65° |
| 2026-05-06 13:46 | 53.54678 | 8.41321 | 23824 ft | 354 kts | 65° |
| 2026-05-06 13:46 | 53.55767 | 8.45049 | 23429 ft | 352 kts | 65° |
| 2026-05-06 13:46 | 53.56844 | 8.48736 | 22959 ft | 350 kts | 65° |
| 2026-05-06 13:47 | 53.57897 | 8.52347 | 22527 ft | 347 kts | 65° |
| 2026-05-06 13:47 | 53.58956 | 8.55984 | 22099 ft | 345 kts | 65° |
| 2026-05-06 13:47 | 53.60007 | 8.59599 | 21667 ft | 342 kts | 65° |
| 2026-05-06 13:47 | 53.61049 | 8.63190 | 21252 ft | 340 kts | 65° |
| 2026-05-06 13:48 | 53.62086 | 8.66766 | 20818 ft | 338 kts | 65° |
| 2026-05-06 13:48 | 53.63110 | 8.70307 | 20409 ft | 336 kts | 66° |
| 2026-05-06 13:48 | 53.64133 | 8.73850 | 19995 ft | 334 kts | 66° |
| 2026-05-06 13:48 | 53.65146 | 8.77356 | 19601 ft | 332 kts | 65° |
| 2026-05-06 13:49 | 53.66153 | 8.80854 | 19206 ft | 330 kts | 66° |
| 2026-05-06 13:49 | 53.67151 | 8.84326 | 18818 ft | 329 kts | 66° |
| 2026-05-06 13:49 | 53.68141 | 8.87774 | 18440 ft | 327 kts | 66° |
| 2026-05-06 13:49 | 53.69129 | 8.91223 | 18065 ft | 325 kts | 66° |
| 2026-05-06 13:50 | 53.70094 | 8.94595 | 17647 ft | 323 kts | 66° |
| 2026-05-06 13:50 | 53.71065 | 8.97989 | 17247 ft | 320 kts | 66° |
| 2026-05-06 13:50 | 53.72026 | 9.01355 | 16863 ft | 317 kts | 66° |
| 2026-05-06 13:50 | 53.72980 | 9.04702 | 16469 ft | 315 kts | 66° |
| 2026-05-06 13:51 | 53.73924 | 9.08019 | 16075 ft | 312 kts | 66° |
| 2026-05-06 13:51 | 53.74861 | 9.11313 | 15700 ft | 310 kts | 65° |
| 2026-05-06 13:51 | 53.75792 | 9.14595 | 15327 ft | 308 kts | 65° |
| 2026-05-06 13:51 | 53.76700 | 9.17799 | 14983 ft | 305 kts | 65° |
| 2026-05-06 13:52 | 53.77609 | 9.21012 | 14623 ft | 303 kts | 65° |
| 2026-05-06 13:52 | 53.78515 | 9.24219 | 14249 ft | 301 kts | 65° |
| 2026-05-06 13:52 | 53.79412 | 9.27394 | 13902 ft | 298 kts | 65° |
| 2026-05-06 13:52 | 53.80279 | 9.30556 | 13535 ft | 296 kts | 71° |
| 2026-05-06 13:53 | 53.80575 | 9.33953 | 13152 ft | 293 kts | 95° |
| 2026-05-06 13:53 | 53.80111 | 9.37293 | 12730 ft | 291 kts | 106° |
| 2026-05-06 13:53 | 53.79615 | 9.40590 | 12269 ft | 291 kts | 104° |
| 2026-05-06 13:53 | 53.78926 | 9.43829 | 11700 ft | 296 kts | 122° |
| 2026-05-06 13:54 | 53.77531 | 9.46282 | 11250 ft | 295 kts | 148° |
| 2026-05-06 13:54 | 53.75635 | 9.47497 | 10846 ft | 294 kts | 173° |
| 2026-05-06 13:54 | 53.73611 | 9.47251 | 10468 ft | 293 kts | 193° |
| 2026-05-06 13:54 | 53.71618 | 9.46452 | 10060 ft | 294 kts | 194° |
| 2026-05-06 13:55 | 53.69640 | 9.45650 | 9676 ft | 292 kts | 194° |
| 2026-05-06 13:55 | 53.67659 | 9.44843 | 9247 ft | 291 kts | 194° |
| 2026-05-06 13:55 | 53.65881 | 9.44100 | 8885 ft | 290 kts | 194° |
| 2026-05-06 13:55 | 53.63930 | 9.43265 | 8475 ft | 289 kts | 194° |
| 2026-05-06 13:56 | 53.61997 | 9.42426 | 8161 ft | 283 kts | 193° |
| 2026-05-06 13:56 | 53.60130 | 9.41582 | 8075 ft | 272 kts | 194° |
| 2026-05-06 13:56 | 53.58333 | 9.40754 | 7988 ft | 263 kts | 194° |
| 2026-05-06 13:56 | 53.56628 | 9.39958 | 7892 ft | 252 kts | 194° |
| 2026-05-06 13:57 | 53.54984 | 9.39176 | 7868 ft | 237 kts | 194° |
| 2026-05-06 13:57 | 53.53470 | 9.38447 | 7867 ft | 224 kts | 194° |
| 2026-05-06 13:57 | 53.51916 | 9.37698 | 7880 ft | 235 kts | 194° |
| 2026-05-06 13:57 | 53.50374 | 9.36959 | 7866 ft | 229 kts | 194° |
| 2026-05-06 13:58 | 53.48885 | 9.36221 | 7868 ft | 217 kts | 194° |
| 2026-05-06 13:58 | 53.47447 | 9.35502 | 7876 ft | 221 kts | 194° |
| 2026-05-06 13:58 | 53.45967 | 9.34774 | 7863 ft | 220 kts | 194° |
| 2026-05-06 13:58 | 53.44499 | 9.34064 | 7865 ft | 220 kts | 194° |
| 2026-05-06 13:59 | 53.43036 | 9.33351 | 7867 ft | 219 kts | 194° |
| 2026-05-06 13:59 | 53.41551 | 9.32771 | 7868 ft | 218 kts | 185° |
| 2026-05-06 13:59 | 53.40053 | 9.32458 | 7889 ft | 216 kts | 184° |
| 2026-05-06 13:59 | 53.38593 | 9.32164 | 7865 ft | 208 kts | 184° |
| 2026-05-06 14:00 | 53.37159 | 9.31880 | 7868 ft | 212 kts | 184° |
| 2026-05-06 14:00 | 53.35687 | 9.31585 | 7827 ft | 208 kts | 184° |
| 2026-05-06 14:00 | 53.34271 | 9.31298 | 7526 ft | 207 kts | 184° |
| 2026-05-06 14:00 | 53.32829 | 9.31089 | 7066 ft | 204 kts | 172° |
| 2026-05-06 14:01 | 53.31570 | 9.31919 | 6569 ft | 196 kts | 136° |
| 2026-05-06 14:01 | 53.30877 | 9.33771 | 6110 ft | 187 kts | 100° |
| 2026-05-06 14:01 | 53.30991 | 9.35884 | 5664 ft | 183 kts | 74° |
| 2026-05-06 14:01 | 53.31350 | 9.37935 | 5180 ft | 183 kts | 73° |
| 2026-05-06 14:02 | 53.31701 | 9.39938 | 5018 ft | 178 kts | 74° |
| 2026-05-06 14:02 | 53.32047 | 9.41882 | 4982 ft | 175 kts | 73° |
| 2026-05-06 14:02 | 53.32394 | 9.43844 | 4972 ft | 176 kts | 74° |
| 2026-05-06 14:02 | 53.32735 | 9.45801 | 4995 ft | 176 kts | 74° |
| 2026-05-06 14:03 | 53.33083 | 9.47763 | 4989 ft | 176 kts | 73° |
| 2026-05-06 14:03 | 53.33431 | 9.49724 | 4982 ft | 175 kts | 73° |
| 2026-05-06 14:03 | 53.33775 | 9.51664 | 4988 ft | 176 kts | 73° |
| 2026-05-06 14:03 | 53.34122 | 9.53619 | 4986 ft | 176 kts | 73° |
| 2026-05-06 14:04 | 53.34463 | 9.55574 | 4976 ft | 175 kts | 74° |
| 2026-05-06 14:04 | 53.34816 | 9.57530 | 4979 ft | 175 kts | 74° |
| 2026-05-06 14:04 | 53.35166 | 9.59484 | 4972 ft | 175 kts | 74° |
| 2026-05-06 14:04 | 53.35508 | 9.61429 | 4990 ft | 175 kts | 74° |
| 2026-05-06 14:05 | 53.35852 | 9.63369 | 4847 ft | 172 kts | 74° |
| 2026-05-06 14:05 | 53.36185 | 9.65251 | 4430 ft | 168 kts | 74° |
| 2026-05-06 14:05 | 53.36513 | 9.67109 | 4079 ft | 165 kts | 74° |
| 2026-05-06 14:05 | 53.36839 | 9.68979 | 3985 ft | 169 kts | 74° |
| 2026-05-06 14:06 | 53.37162 | 9.70869 | 3992 ft | 171 kts | 74° |
| 2026-05-06 14:06 | 53.37509 | 9.72902 | 3991 ft | 188 kts | 74° |
| 2026-05-06 14:06 | 53.37865 | 9.74956 | 3988 ft | 184 kts | 74° |
| 2026-05-06 14:06 | 53.38218 | 9.77029 | 3995 ft | 181 kts | 74° |
| 2026-05-06 14:07 | 53.38547 | 9.79104 | 3994 ft | 185 kts | 81° |
| 2026-05-06 14:07 | 53.38300 | 9.81163 | 3992 ft | 189 kts | 118° |
| 2026-05-06 14:07 | 53.37267 | 9.82589 | 3991 ft | 210 kts | 155° |
| 2026-05-06 14:07 | 53.35728 | 9.82980 | 3969 ft | 235 kts | 174° |
| 2026-05-06 14:08 | 53.34076 | 9.83100 | 3982 ft | 237 kts | 174° |
| 2026-05-06 14:08 | 53.32440 | 9.83213 | 3986 ft | 235 kts | 174° |
| 2026-05-06 14:08 | 53.30801 | 9.83178 | 3981 ft | 239 kts | 188° |
| 2026-05-06 14:08 | 53.29310 | 9.81971 | 3984 ft | 244 kts | 220° |
| 2026-05-06 14:09 | 53.28377 | 9.79612 | 3978 ft | 250 kts | 253° |
| 2026-05-06 14:09 | 53.28283 | 9.76752 | 3979 ft | 249 kts | 285° |
| 2026-05-06 14:09 | 53.28992 | 9.74146 | 3976 ft | 246 kts | 304° |
| 2026-05-06 14:09 | 53.29863 | 9.71685 | 3981 ft | 247 kts | 304° |
| 2026-05-06 14:10 | 53.30741 | 9.69223 | 3981 ft | 245 kts | 304° |
| 2026-05-06 14:10 | 53.31606 | 9.66790 | 3980 ft | 242 kts | 304° |
| 2026-05-06 14:10 | 53.32466 | 9.64386 | 3987 ft | 244 kts | 304° |
| 2026-05-06 14:10 | 53.33308 | 9.61935 | 3983 ft | 244 kts | 298° |
| 2026-05-06 14:11 | 53.33945 | 9.59282 | 3987 ft | 248 kts | 292° |
| 2026-05-06 14:11 | 53.34216 | 9.56443 | 3984 ft | 250 kts | 265° |
| 2026-05-06 14:11 | 53.33646 | 9.53733 | 3987 ft | 248 kts | 238° |
| 2026-05-06 14:11 | 53.32543 | 9.51540 | 3985 ft | 248 kts | 212° |
| 2026-05-06 14:12 | 53.30984 | 9.50526 | 3978 ft | 238 kts | 180° |
| 2026-05-06 14:12 | 53.29400 | 9.50997 | 3981 ft | 230 kts | 148° |
| 2026-05-06 14:12 | 53.28264 | 9.52753 | 3981 ft | 221 kts | 115° |
| 2026-05-06 14:12 | 53.27924 | 9.55150 | 3975 ft | 216 kts | 83° |
| 2026-05-06 14:13 | 53.28460 | 9.57448 | 3981 ft | 216 kts | 51° |
| 2026-05-06 14:13 | 53.29698 | 9.58833 | 3977 ft | 222 kts | 19° |
| 2026-05-06 14:13 | 53.31224 | 9.59365 | 3976 ft | 223 kts | 14° |
| 2026-05-06 14:13 | 53.32750 | 9.59828 | 3983 ft | 223 kts | 14° |
| 2026-05-06 14:14 | 53.34280 | 9.60282 | 3984 ft | 224 kts | 13° |
| 2026-05-06 14:14 | 53.35816 | 9.60754 | 3983 ft | 224 kts | 14° |
| 2026-05-06 14:14 | 53.37352 | 9.61223 | 3992 ft | 224 kts | 14° |
| 2026-05-06 14:14 | 53.38884 | 9.61674 | 3992 ft | 223 kts | 14° |
| 2026-05-06 14:15 | 53.40405 | 9.62184 | 3996 ft | 222 kts | 19° |
| 2026-05-06 14:15 | 53.41865 | 9.63023 | 4000 ft | 221 kts | 24° |
| 2026-05-06 14:15 | 53.43314 | 9.63934 | 3992 ft | 223 kts | 24° |
| 2026-05-06 14:15 | 53.44630 | 9.65199 | 3894 ft | 215 kts | 42° |
| 2026-05-06 14:16 | 53.45715 | 9.66844 | 3722 ft | 211 kts | 45° |
| 2026-05-06 14:16 | 53.46778 | 9.68548 | 3644 ft | 216 kts | 46° |
| 2026-05-06 14:16 | 53.47840 | 9.70291 | 3526 ft | 210 kts | 46° |
| 2026-05-06 14:16 | 53.48846 | 9.71969 | 3426 ft | 198 kts | 47° |
| 2026-05-06 14:17 | 53.49801 | 9.73590 | 3349 ft | 190 kts | 47° |
| 2026-05-06 14:17 | 53.50708 | 9.75158 | 3272 ft | 193 kts | 47° |
| 2026-05-06 14:17 | 53.51636 | 9.76793 | 3140 ft | 191 kts | 48° |
| 2026-05-06 14:17 | 53.52534 | 9.78403 | 2924 ft | 187 kts | 48° |
| 2026-05-06 14:18 | 53.53405 | 9.79992 | 2705 ft | 184 kts | 48° |
| 2026-05-06 14:18 | 53.54265 | 9.81571 | 2453 ft | 181 kts | 48° |
| 2026-05-06 14:18 | 53.55100 | 9.83129 | 2222 ft | 180 kts | 49° |
| 2026-05-06 14:18 | 53.55909 | 9.84663 | 2012 ft | 171 kts | 49° |
| 2026-05-06 14:19 | 53.56663 | 9.86136 | 1762 ft | 166 kts | 49° |
| 2026-05-06 14:19 | 53.57427 | 9.87614 | 1505 ft | 168 kts | 49° |
| 2026-05-06 14:19 | 53.58187 | 9.89100 | 1614 ft | 165 kts | 50° |
| 2026-05-06 14:19 | 53.58982 | 9.90660 | 1417 ft | 183 kts | 50° |
| 2026-05-06 14:20 | 53.59740 | 9.92199 | 1075 ft | 160 kts | 51° |
| 2026-05-06 14:20 | 53.60412 | 9.93541 | 665 ft | 144 kts | 49° |
| 2026-05-06 14:20 | 53.61041 | 9.94744 | 412 ft | 129 kts | 50° |
| 2026-05-06 14:20 | 53.61590 | 9.95890 | 181 ft | 120 kts | 50° |
| 2026-05-06 14:21 | 53.62085 | 9.96906 | 53 ft | 108 kts | 49° |
| 2026-05-06 14:21 | 53.62425 | 9.97565 | 44 ft | 41 kts | 51° |
| 2026-05-06 14:21 | 53.62616 | 9.97966 | 45 ft | 37 kts | 51° |
| 2026-05-06 14:21 | 53.62726 | 9.98194 | 48 ft | 18 kts | 50° |
| 2026-05-06 14:22 | 53.62740 | 9.98358 | 46 ft | 12 kts | 122° |
| 2026-05-06 14:22 | 53.62695 | 9.98495 | 46 ft | 14 kts | 98° |
| 2026-05-06 14:22 | 53.62700 | 9.98544 | 46 ft | 0 kts | 69° |
| 2026-05-06 14:23 | 53.62702 | 9.98555 | 46 ft | 5 kts | 69° |
| 2026-05-06 14:23 | 53.62740 | 9.98651 | 46 ft | 10 kts | 49° |
| 2026-05-06 14:23 | 53.62789 | 9.98746 | 46 ft | 0 kts | 50° |
| 2026-05-06 14:24 | 53.62789 | 9.98748 | 46 ft | 2 kts | 50° |
| 2026-05-06 14:24 | 53.62828 | 9.98826 | 46 ft | 13 kts | 50° |
| 2026-05-06 14:25 | 53.62832 | 9.98834 | 46 ft | 0 kts | 50° |
| 2026-05-06 14:25 | 53.62856 | 9.98881 | 46 ft | 11 kts | 50° |
| 2026-05-06 14:25 | 53.62882 | 9.98934 | 47 ft | 3 kts | 50° |
| 2026-05-06 14:25 | 53.62924 | 9.99018 | 47 ft | 15 kts | 50° |
| 2026-05-06 14:26 | 53.63007 | 9.99193 | 47 ft | 21 kts | 52° |
| 2026-05-06 14:26 | 53.63076 | 9.99340 | 47 ft | 11 kts | 54° |
| 2026-05-06 14:26 | 53.63087 | 9.99366 | 47 ft | 0 kts | 56° |
| 2026-05-06 14:28 | 53.63099 | 9.99397 | 48 ft | 9 kts | 56° |
| 2026-05-06 14:29 | 53.63157 | 9.99535 | 47 ft | 20 kts | 53° |
| 2026-05-06 14:29 | 53.63267 | 9.99741 | 48 ft | 24 kts | 49° |
| 2026-05-06 14:29 | 53.63359 | 9.99920 | 50 ft | 13 kts | 50° |
| 2026-05-06 14:29 | 53.63378 | 9.99958 | 50 ft | 9 kts | 50° |
| 2026-05-06 14:30 | 53.63432 | 10.00077 | 51 ft | 17 kts | 59° |
| 2026-05-06 14:30 | 53.63450 | 10.00233 | 51 ft | 11 kts | 90° |
| 2026-05-06 14:30 | 53.63450 | 10.00293 | 51 ft | 0 kts | 90° |
| 2026-05-06 14:30 | 53.63450 | 10.00307 | 51 ft | 0 kts | 89° |
| 2026-05-06 14:31 | 53.63450 | 10.00313 | 51 ft | 0 kts | 89° |